sensor_id;sensor_type;location;lat;lon;timestamp;temperature;humidity
18898;DHT22;9581;49.484;8.556;2024-01-15T00:00:43;-1.20;99.90
18898;DHT22;9581;49.484;8.556;2024-01-15T00:03:10;-1.20;99.90
18898;DHT22;9581;49.484;8.556;2024-01-15T00:05:37;-1.20;99.90
18898;DHT22;9581;49.484;8.556;2024-01-15T00:08:04;-1.30;99.90
18898;DHT22;9581;49.484;8.556;2024-01-15T00:10:30;-1.30;99.90
18898;DHT22;9581;49.484;8.556;2024-01-15T00:12:57;-1.30;99.90
18898;DHT22;9581;49.484;8.556;2024-01-15T00:15:25;-1.40;99.90
18898;DHT22;9581;49.484;8.556;2024-01-15T00:17:54;-1.50;99.90
18898;DHT22;9581;49.484;8.556;2024-01-15T00:20:23;-1.50;99.90
18898;DHT22;9581;49.484;8.556;2024-01-15T00:22:50;-1.50;99.90
18898;DHT22;9581;49.484;8.556;2024-01-15T00:25:17;-1.50;99.90
18898;DHT22;9581;49.484;8.556;2024-01-15T00:27:45;-1.50;99.90
18898;DHT22;9581;49.484;8.556;2024-01-15T00:30:13;-1.50;99.90
18898;DHT22;9581;49.484;8.556;2024-01-15T00:32:42;-1.40;99.90
18898;DHT22;9581;49.484;8.556;2024-01-15T00:35:10;-1.50;99.90
18898;DHT22;9581;49.484;8.556;2024-01-15T00:37:37;-1.50;99.90
18898;DHT22;9581;49.484;8.556;2024-01-15T00:40:05;-1.60;99.90
18898;DHT22;9581;49.484;8.556;2024-01-15T00:42:33;-1.50;99.90
18898;DHT22;9581;49.484;8.556;2024-01-15T00:45:00;-1.50;99.90
18898;DHT22;9581;49.484;8.556;2024-01-15T00:47:26;-1.60;99.90
18898;DHT22;9581;49.484;8.556;2024-01-15T00:49:54;-1.60;99.90
18898;DHT22;9581;49.484;8.556;2024-01-15T00:52:21;-1.50;99.90
18898;DHT22;9581;49.484;8.556;2024-01-15T00:54:48;-1.50;99.90
18898;DHT22;9581;49.484;8.556;2024-01-15T00:57:15;-1.50;99.90
18898;DHT22;9581;49.484;8.556;2024-01-15T00:59:41;-1.40;99.90
18898;DHT22;9581;49.484;8.556;2024-01-15T01:02:08;-1.40;99.90
18898;DHT22;9581;49.484;8.556;2024-01-15T01:04:35;-1.30;99.90
18898;DHT22;9581;49.484;8.556;2024-01-15T01:07:03;-1.40;99.90
18898;DHT22;9581;49.484;8.556;2024-01-15T01:09:30;-1.50;99.90
18898;DHT22;9581;49.484;8.556;2024-01-15T01:11:56;-1.60;99.90
18898;DHT22;9581;49.484;8.556;2024-01-15T01:14:23;-1.40;99.90
18898;DHT22;9581;49.484;8.556;2024-01-15T01:16:50;-1.40;99.90
18898;DHT22;9581;49.484;8.556;2024-01-15T01:19:16;-1.40;99.90
18898;DHT22;9581;49.484;8.556;2024-01-15T01:21:43;-1.50;99.90
18898;DHT22;9581;49.484;8.556;2024-01-15T01:24:11;-1.30;99.90
18898;DHT22;9581;49.484;8.556;2024-01-15T01:26:38;-1.20;99.90
18898;DHT22;9581;49.484;8.556;2024-01-15T01:29:04;-1.20;99.90
18898;DHT22;9581;49.484;8.556;2024-01-15T01:31:31;-1.20;99.90
18898;DHT22;9581;49.484;8.556;2024-01-15T01:33:58;-1.30;99.90
18898;DHT22;9581;49.484;8.556;2024-01-15T01:36:25;-1.40;99.90
18898;DHT22;9581;49.484;8.556;2024-01-15T01:38:52;-1.30;99.90
18898;DHT22;9581;49.484;8.556;2024-01-15T01:41:20;-1.30;99.90
18898;DHT22;9581;49.484;8.556;2024-01-15T01:43:46;-1.30;99.90
18898;DHT22;9581;49.484;8.556;2024-01-15T01:46:13;-1.40;99.90
18898;DHT22;9581;49.484;8.556;2024-01-15T01:48:39;-1.50;99.90
18898;DHT22;9581;49.484;8.556;2024-01-15T01:51:06;-1.40;99.90
18898;DHT22;9581;49.484;8.556;2024-01-15T01:53:34;-1.40;99.90
18898;DHT22;9581;49.484;8.556;2024-01-15T01:56:02;-1.40;99.90
18898;DHT22;9581;49.484;8.556;2024-01-15T01:58:31;-1.40;99.90
18898;DHT22;9581;49.484;8.556;2024-01-15T02:00:59;-1.20;99.90
18898;DHT22;9581;49.484;8.556;2024-01-15T02:03:26;-1.30;99.90
18898;DHT22;9581;49.484;8.556;2024-01-15T02:05:53;-1.30;99.90
18898;DHT22;9581;49.484;8.556;2024-01-15T02:08:20;-1.40;99.90
18898;DHT22;9581;49.484;8.556;2024-01-15T02:10:48;-1.20;99.90
18898;DHT22;9581;49.484;8.556;2024-01-15T02:13:14;-1.00;99.90
18898;DHT22;9581;49.484;8.556;2024-01-15T02:15:42;-0.90;99.90
18898;DHT22;9581;49.484;8.556;2024-01-15T02:18:09;-1.00;99.90
18898;DHT22;9581;49.484;8.556;2024-01-15T02:20:36;-0.90;99.90
18898;DHT22;9581;49.484;8.556;2024-01-15T02:23:10;-0.90;99.90
18898;DHT22;9581;49.484;8.556;2024-01-15T02:25:38;-0.80;99.90
18898;DHT22;9581;49.484;8.556;2024-01-15T02:28:06;-0.90;99.90
18898;DHT22;9581;49.484;8.556;2024-01-15T02:30:34;-1.10;99.90
18898;DHT22;9581;49.484;8.556;2024-01-15T02:33:03;-1.30;99.90
18898;DHT22;9581;49.484;8.556;2024-01-15T02:35:30;-1.30;99.90
18898;DHT22;9581;49.484;8.556;2024-01-15T02:37:56;-1.30;99.90
18898;DHT22;9581;49.484;8.556;2024-01-15T02:40:24;-1.30;99.90
18898;DHT22;9581;49.484;8.556;2024-01-15T02:42:51;-1.20;99.90
18898;DHT22;9581;49.484;8.556;2024-01-15T02:45:18;-1.30;99.90
18898;DHT22;9581;49.484;8.556;2024-01-15T02:47:44;-1.30;99.90
18898;DHT22;9581;49.484;8.556;2024-01-15T02:50:11;-1.30;99.90
18898;DHT22;9581;49.484;8.556;2024-01-15T02:52:38;-1.30;99.90
18898;DHT22;9581;49.484;8.556;2024-01-15T02:55:05;-1.20;99.90
18898;DHT22;9581;49.484;8.556;2024-01-15T02:57:33;-1.10;99.90
18898;DHT22;9581;49.484;8.556;2024-01-15T03:00:00;-1.00;99.90
18898;DHT22;9581;49.484;8.556;2024-01-15T03:02:27;-1.10;99.90
18898;DHT22;9581;49.484;8.556;2024-01-15T03:04:54;-1.20;99.90
18898;DHT22;9581;49.484;8.556;2024-01-15T03:07:20;-1.20;99.90
18898;DHT22;9581;49.484;8.556;2024-01-15T03:09:47;-1.20;99.90
18898;DHT22;9581;49.484;8.556;2024-01-15T03:12:14;-1.20;99.90
18898;DHT22;9581;49.484;8.556;2024-01-15T03:14:42;-1.00;99.90
18898;DHT22;9581;49.484;8.556;2024-01-15T03:17:08;-1.10;99.90
18898;DHT22;9581;49.484;8.556;2024-01-15T03:19:36;-1.00;99.90
18898;DHT22;9581;49.484;8.556;2024-01-15T03:22:03;-1.10;99.90
18898;DHT22;9581;49.484;8.556;2024-01-15T03:24:31;-1.20;99.90
18898;DHT22;9581;49.484;8.556;2024-01-15T03:26:58;-1.00;99.90
18898;DHT22;9581;49.484;8.556;2024-01-15T03:29:26;-1.00;99.90
18898;DHT22;9581;49.484;8.556;2024-01-15T03:31:54;-1.10;99.90
18898;DHT22;9581;49.484;8.556;2024-01-15T03:34:20;-1.00;99.90
18898;DHT22;9581;49.484;8.556;2024-01-15T03:36:47;-1.00;99.90
18898;DHT22;9581;49.484;8.556;2024-01-15T03:39:14;-1.10;99.90
18898;DHT22;9581;49.484;8.556;2024-01-15T03:41:40;-1.10;99.90
18898;DHT22;9581;49.484;8.556;2024-01-15T03:44:07;-1.10;99.90
18898;DHT22;9581;49.484;8.556;2024-01-15T03:46:34;-1.10;99.90
18898;DHT22;9581;49.484;8.556;2024-01-15T03:49:02;-1.10;99.90
18898;DHT22;9581;49.484;8.556;2024-01-15T03:51:29;-1.10;99.90
18898;DHT22;9581;49.484;8.556;2024-01-15T03:53:55;-1.00;99.90
18898;DHT22;9581;49.484;8.556;2024-01-15T03:56:22;-1.10;99.90
18898;DHT22;9581;49.484;8.556;2024-01-15T03:58:48;-1.00;99.90
18898;DHT22;9581;49.484;8.556;2024-01-15T04:01:15;-1.00;99.90
18898;DHT22;9581;49.484;8.556;2024-01-15T04:03:42;-1.00;99.90
18898;DHT22;9581;49.484;8.556;2024-01-15T04:06:10;-1.00;99.90
18898;DHT22;9581;49.484;8.556;2024-01-15T04:08:36;-1.20;99.90
18898;DHT22;9581;49.484;8.556;2024-01-15T04:11:03;-1.30;99.90
18898;DHT22;9581;49.484;8.556;2024-01-15T04:13:32;-1.20;99.90
18898;DHT22;9581;49.484;8.556;2024-01-15T04:16:00;-1.20;99.90
18898;DHT22;9581;49.484;8.556;2024-01-15T04:18:27;-1.20;99.90
18898;DHT22;9581;49.484;8.556;2024-01-15T04:20:53;-1.20;99.90
18898;DHT22;9581;49.484;8.556;2024-01-15T04:23:21;-1.20;99.90
18898;DHT22;9581;49.484;8.556;2024-01-15T04:25:48;-1.20;99.90
18898;DHT22;9581;49.484;8.556;2024-01-15T04:28:14;-1.10;99.90
18898;DHT22;9581;49.484;8.556;2024-01-15T04:30:41;-1.10;99.90
18898;DHT22;9581;49.484;8.556;2024-01-15T04:33:08;-1.20;99.90
18898;DHT22;9581;49.484;8.556;2024-01-15T04:35:35;-1.10;99.90
18898;DHT22;9581;49.484;8.556;2024-01-15T04:38:01;-1.20;99.90
18898;DHT22;9581;49.484;8.556;2024-01-15T04:40:29;-1.20;99.90
18898;DHT22;9581;49.484;8.556;2024-01-15T04:42:56;-1.30;99.90
18898;DHT22;9581;49.484;8.556;2024-01-15T04:45:22;-1.30;99.90
18898;DHT22;9581;49.484;8.556;2024-01-15T04:47:53;-1.30;99.90
18898;DHT22;9581;49.484;8.556;2024-01-15T04:50:21;-1.20;99.90
18898;DHT22;9581;49.484;8.556;2024-01-15T04:52:47;-1.20;99.90
18898;DHT22;9581;49.484;8.556;2024-01-15T04:55:14;-1.20;99.90
18898;DHT22;9581;49.484;8.556;2024-01-15T04:57:42;-1.20;99.90
18898;DHT22;9581;49.484;8.556;2024-01-15T05:00:10;-1.10;99.90
18898;DHT22;9581;49.484;8.556;2024-01-15T05:02:37;-1.00;99.90
18898;DHT22;9581;49.484;8.556;2024-01-15T05:05:04;-1.10;99.90
18898;DHT22;9581;49.484;8.556;2024-01-15T05:07:31;-1.10;99.90
18898;DHT22;9581;49.484;8.556;2024-01-15T05:09:58;-1.10;99.90
18898;DHT22;9581;49.484;8.556;2024-01-15T05:12:24;-1.20;99.90
18898;DHT22;9581;49.484;8.556;2024-01-15T05:14:52;-1.20;99.90
18898;DHT22;9581;49.484;8.556;2024-01-15T05:17:19;-1.20;99.90
18898;DHT22;9581;49.484;8.556;2024-01-15T05:19:46;-1.00;99.90
18898;DHT22;9581;49.484;8.556;2024-01-15T05:22:12;-1.00;99.90
18898;DHT22;9581;49.484;8.556;2024-01-15T05:24:39;-1.10;99.90
18898;DHT22;9581;49.484;8.556;2024-01-15T05:27:06;-1.10;99.90
18898;DHT22;9581;49.484;8.556;2024-01-15T05:29:32;-1.10;99.90
18898;DHT22;9581;49.484;8.556;2024-01-15T05:32:00;-1.00;99.90
18898;DHT22;9581;49.484;8.556;2024-01-15T05:34:27;-1.20;99.90
18898;DHT22;9581;49.484;8.556;2024-01-15T05:36:54;-1.10;99.90
18898;DHT22;9581;49.484;8.556;2024-01-15T05:39:20;-1.00;99.90
18898;DHT22;9581;49.484;8.556;2024-01-15T05:41:47;-1.00;99.90
18898;DHT22;9581;49.484;8.556;2024-01-15T05:44:13;-1.00;99.90
18898;DHT22;9581;49.484;8.556;2024-01-15T05:46:40;-1.00;99.90
18898;DHT22;9581;49.484;8.556;2024-01-15T05:49:08;-0.90;99.90
18898;DHT22;9581;49.484;8.556;2024-01-15T05:51:35;-1.00;99.90
18898;DHT22;9581;49.484;8.556;2024-01-15T05:54:02;-1.10;99.90
18898;DHT22;9581;49.484;8.556;2024-01-15T05:56:28;-1.00;99.90
18898;DHT22;9581;49.484;8.556;2024-01-15T05:58:55;-0.90;99.90
18898;DHT22;9581;49.484;8.556;2024-01-15T06:01:22;-0.80;99.90
18898;DHT22;9581;49.484;8.556;2024-01-15T06:03:48;-0.80;99.90
18898;DHT22;9581;49.484;8.556;2024-01-15T06:06:16;-0.90;99.90
18898;DHT22;9581;49.484;8.556;2024-01-15T06:08:43;-0.90;99.90
18898;DHT22;9581;49.484;8.556;2024-01-15T06:11:10;-0.90;99.90
18898;DHT22;9581;49.484;8.556;2024-01-15T06:13:36;-0.90;99.90
18898;DHT22;9581;49.484;8.556;2024-01-15T06:16:12;-0.90;99.90
18898;DHT22;9581;49.484;8.556;2024-01-15T06:18:39;-0.80;99.90
18898;DHT22;9581;49.484;8.556;2024-01-15T06:21:06;-0.80;99.90
18898;DHT22;9581;49.484;8.556;2024-01-15T06:23:34;-0.90;99.90
18898;DHT22;9581;49.484;8.556;2024-01-15T06:26:00;-0.80;99.90
18898;DHT22;9581;49.484;8.556;2024-01-15T06:28:29;-0.70;99.90
18898;DHT22;9581;49.484;8.556;2024-01-15T06:30:56;-0.70;99.90
18898;DHT22;9581;49.484;8.556;2024-01-15T06:33:23;-0.60;99.90
18898;DHT22;9581;49.484;8.556;2024-01-15T06:35:50;-0.50;99.90
18898;DHT22;9581;49.484;8.556;2024-01-15T06:38:17;-0.50;99.90
18898;DHT22;9581;49.484;8.556;2024-01-15T06:40:45;-0.60;99.90
18898;DHT22;9581;49.484;8.556;2024-01-15T06:43:13;-0.50;99.90
18898;DHT22;9581;49.484;8.556;2024-01-15T06:45:40;-0.50;99.90
18898;DHT22;9581;49.484;8.556;2024-01-15T06:48:07;-0.50;99.90
18898;DHT22;9581;49.484;8.556;2024-01-15T06:50:34;-0.50;99.90
18898;DHT22;9581;49.484;8.556;2024-01-15T06:53:01;-0.50;99.90
18898;DHT22;9581;49.484;8.556;2024-01-15T06:55:27;-0.50;99.90
18898;DHT22;9581;49.484;8.556;2024-01-15T06:57:55;-0.40;99.90
18898;DHT22;9581;49.484;8.556;2024-01-15T07:00:22;-0.50;99.90
18898;DHT22;9581;49.484;8.556;2024-01-15T07:02:49;-0.50;99.90
18898;DHT22;9581;49.484;8.556;2024-01-15T07:05:15;-0.50;99.90
18898;DHT22;9581;49.484;8.556;2024-01-15T07:07:42;-0.50;99.90
18898;DHT22;9581;49.484;8.556;2024-01-15T07:10:11;-0.40;99.90
18898;DHT22;9581;49.484;8.556;2024-01-15T07:12:38;-0.40;99.90
18898;DHT22;9581;49.484;8.556;2024-01-15T07:15:06;-0.40;99.90
18898;DHT22;9581;49.484;8.556;2024-01-15T07:17:33;-0.30;99.90
18898;DHT22;9581;49.484;8.556;2024-01-15T07:20:00;-0.30;99.90
18898;DHT22;9581;49.484;8.556;2024-01-15T07:22:27;-0.30;99.90
18898;DHT22;9581;49.484;8.556;2024-01-15T07:24:55;-0.30;99.90
18898;DHT22;9581;49.484;8.556;2024-01-15T07:27:21;-0.40;99.90
18898;DHT22;9581;49.484;8.556;2024-01-15T07:29:48;-0.20;99.90
18898;DHT22;9581;49.484;8.556;2024-01-15T07:32:16;-0.30;99.90
18898;DHT22;9581;49.484;8.556;2024-01-15T07:34:43;-0.30;99.90
18898;DHT22;9581;49.484;8.556;2024-01-15T07:37:09;-0.30;99.90
18898;DHT22;9581;49.484;8.556;2024-01-15T07:39:37;-0.30;99.90
18898;DHT22;9581;49.484;8.556;2024-01-15T07:42:04;-0.30;99.90
18898;DHT22;9581;49.484;8.556;2024-01-15T07:44:30;-0.30;99.90
18898;DHT22;9581;49.484;8.556;2024-01-15T07:46:57;-0.20;99.90
18898;DHT22;9581;49.484;8.556;2024-01-15T07:49:25;-0.20;99.90
18898;DHT22;9581;49.484;8.556;2024-01-15T07:51:52;-0.30;99.90
18898;DHT22;9581;49.484;8.556;2024-01-15T07:54:18;-0.20;99.90
18898;DHT22;9581;49.484;8.556;2024-01-15T07:56:55;-0.20;99.90
18898;DHT22;9581;49.484;8.556;2024-01-15T07:59:22;-0.10;99.90
18898;DHT22;9581;49.484;8.556;2024-01-15T08:01:49;0.10;99.90
18898;DHT22;9581;49.484;8.556;2024-01-15T08:04:16;0.10;99.90
18898;DHT22;9581;49.484;8.556;2024-01-15T08:06:44;0.10;99.90
18898;DHT22;9581;49.484;8.556;2024-01-15T08:09:10;0.10;99.90
18898;DHT22;9581;49.484;8.556;2024-01-15T08:11:39;0.10;99.90
18898;DHT22;9581;49.484;8.556;2024-01-15T08:14:06;0.00;99.90
18898;DHT22;9581;49.484;8.556;2024-01-15T08:16:32;-0.10;99.90
18898;DHT22;9581;49.484;8.556;2024-01-15T08:18:59;-0.20;99.90
18898;DHT22;9581;49.484;8.556;2024-01-15T08:21:26;-0.20;99.90
18898;DHT22;9581;49.484;8.556;2024-01-15T08:23:56;-0.20;99.90
18898;DHT22;9581;49.484;8.556;2024-01-15T08:26:23;-0.10;99.90
18898;DHT22;9581;49.484;8.556;2024-01-15T08:28:50;0.00;99.90
18898;DHT22;9581;49.484;8.556;2024-01-15T08:31:17;-0.10;99.90
18898;DHT22;9581;49.484;8.556;2024-01-15T08:33:43;-0.10;99.90
18898;DHT22;9581;49.484;8.556;2024-01-15T08:36:10;-0.20;99.90
18898;DHT22;9581;49.484;8.556;2024-01-15T08:38:37;-0.20;99.90
18898;DHT22;9581;49.484;8.556;2024-01-15T08:41:05;-0.30;99.90
18898;DHT22;9581;49.484;8.556;2024-01-15T08:43:33;-0.20;99.90
18898;DHT22;9581;49.484;8.556;2024-01-15T08:46:00;-0.10;99.90
18898;DHT22;9581;49.484;8.556;2024-01-15T08:48:28;-0.20;99.90
18898;DHT22;9581;49.484;8.556;2024-01-15T08:50:54;-0.20;99.90
18898;DHT22;9581;49.484;8.556;2024-01-15T08:53:22;0.00;99.90
18898;DHT22;9581;49.484;8.556;2024-01-15T08:55:49;0.00;99.90
18898;DHT22;9581;49.484;8.556;2024-01-15T08:58:17;0.00;99.90
18898;DHT22;9581;49.484;8.556;2024-01-15T09:00:44;0.10;99.90
18898;DHT22;9581;49.484;8.556;2024-01-15T09:03:11;0.20;99.90
18898;DHT22;9581;49.484;8.556;2024-01-15T09:05:37;0.20;99.90
18898;DHT22;9581;49.484;8.556;2024-01-15T09:08:04;0.30;99.90
18898;DHT22;9581;49.484;8.556;2024-01-15T09:10:31;0.40;99.90
18898;DHT22;9581;49.484;8.556;2024-01-15T09:12:58;0.30;99.90
18898;DHT22;9581;49.484;8.556;2024-01-15T09:15:27;0.40;99.90
18898;DHT22;9581;49.484;8.556;2024-01-15T09:17:54;0.60;99.90
18898;DHT22;9581;49.484;8.556;2024-01-15T09:20:22;0.60;99.90
18898;DHT22;9581;49.484;8.556;2024-01-15T09:22:49;0.70;99.90
18898;DHT22;9581;49.484;8.556;2024-01-15T09:25:16;0.60;99.90
18898;DHT22;9581;49.484;8.556;2024-01-15T09:27:42;0.70;99.90
18898;DHT22;9581;49.484;8.556;2024-01-15T09:30:10;0.60;99.90
18898;DHT22;9581;49.484;8.556;2024-01-15T09:32:38;0.70;99.90
18898;DHT22;9581;49.484;8.556;2024-01-15T09:35:06;0.80;99.90
18898;DHT22;9581;49.484;8.556;2024-01-15T09:37:32;0.80;99.90
18898;DHT22;9581;49.484;8.556;2024-01-15T09:39:59;0.80;99.90
18898;DHT22;9581;49.484;8.556;2024-01-15T09:42:26;0.80;99.90
18898;DHT22;9581;49.484;8.556;2024-01-15T09:44:53;0.70;99.90
18898;DHT22;9581;49.484;8.556;2024-01-15T09:47:20;0.60;99.90
18898;DHT22;9581;49.484;8.556;2024-01-15T09:49:49;0.80;99.90
18898;DHT22;9581;49.484;8.556;2024-01-15T09:52:16;0.80;99.90
18898;DHT22;9581;49.484;8.556;2024-01-15T09:54:45;0.80;99.90
18898;DHT22;9581;49.484;8.556;2024-01-15T09:57:12;0.80;99.90
18898;DHT22;9581;49.484;8.556;2024-01-15T09:59:40;0.90;99.90
18898;DHT22;9581;49.484;8.556;2024-01-15T10:02:10;1.20;99.90
18898;DHT22;9581;49.484;8.556;2024-01-15T10:04:40;1.30;99.90
18898;DHT22;9581;49.484;8.556;2024-01-15T10:07:08;1.20;99.90
18898;DHT22;9581;49.484;8.556;2024-01-15T10:09:36;1.30;99.90
18898;DHT22;9581;49.484;8.556;2024-01-15T10:12:04;1.40;99.90
18898;DHT22;9581;49.484;8.556;2024-01-15T10:14:31;1.40;99.90
18898;DHT22;9581;49.484;8.556;2024-01-15T10:16:58;1.40;99.90
18898;DHT22;9581;49.484;8.556;2024-01-15T10:19:24;1.50;99.90
18898;DHT22;9581;49.484;8.556;2024-01-15T10:21:51;1.60;99.90
18898;DHT22;9581;49.484;8.556;2024-01-15T10:24:19;1.60;99.90
18898;DHT22;9581;49.484;8.556;2024-01-15T10:26:46;1.60;99.90
18898;DHT22;9581;49.484;8.556;2024-01-15T10:29:15;1.60;99.90
18898;DHT22;9581;49.484;8.556;2024-01-15T10:31:41;1.60;99.90
18898;DHT22;9581;49.484;8.556;2024-01-15T10:34:12;1.60;99.90
18898;DHT22;9581;49.484;8.556;2024-01-15T10:36:40;1.60;99.90
18898;DHT22;9581;49.484;8.556;2024-01-15T10:39:07;1.60;99.90
18898;DHT22;9581;49.484;8.556;2024-01-15T10:41:36;1.60;99.90
18898;DHT22;9581;49.484;8.556;2024-01-15T10:44:03;1.50;99.90
18898;DHT22;9581;49.484;8.556;2024-01-15T10:46:30;1.60;99.90
18898;DHT22;9581;49.484;8.556;2024-01-15T10:48:58;1.60;99.90
18898;DHT22;9581;49.484;8.556;2024-01-15T10:51:24;1.60;99.90
18898;DHT22;9581;49.484;8.556;2024-01-15T10:53:53;1.60;99.90
18898;DHT22;9581;49.484;8.556;2024-01-15T10:56:22;1.70;99.90
18898;DHT22;9581;49.484;8.556;2024-01-15T10:58:51;1.70;99.90
18898;DHT22;9581;49.484;8.556;2024-01-15T11:01:18;1.50;99.90
18898;DHT22;9581;49.484;8.556;2024-01-15T11:03:46;1.60;99.90
18898;DHT22;9581;49.484;8.556;2024-01-15T11:06:16;1.60;99.90
18898;DHT22;9581;49.484;8.556;2024-01-15T11:08:45;1.80;99.90
18898;DHT22;9581;49.484;8.556;2024-01-15T11:11:12;1.70;99.90
18898;DHT22;9581;49.484;8.556;2024-01-15T11:13:42;1.70;99.90
18898;DHT22;9581;49.484;8.556;2024-01-15T11:16:12;1.50;99.90
18898;DHT22;9581;49.484;8.556;2024-01-15T11:18:40;1.50;99.90
18898;DHT22;9581;49.484;8.556;2024-01-15T11:21:20;1.30;99.90
18898;DHT22;9581;49.484;8.556;2024-01-15T11:23:48;1.20;99.90
18898;DHT22;9581;49.484;8.556;2024-01-15T11:26:32;1.10;99.90
18898;DHT22;9581;49.484;8.556;2024-01-15T11:29:00;1.20;99.90
18898;DHT22;9581;49.484;8.556;2024-01-15T11:31:59;1.30;99.90
18898;DHT22;9581;49.484;8.556;2024-01-15T11:34:58;1.40;99.90
18898;DHT22;9581;49.484;8.556;2024-01-15T11:37:28;1.30;99.90
18898;DHT22;9581;49.484;8.556;2024-01-15T11:39:56;1.30;99.90
18898;DHT22;9581;49.484;8.556;2024-01-15T11:42:23;1.50;99.90
18898;DHT22;9581;49.484;8.556;2024-01-15T11:44:50;1.50;99.90
18898;DHT22;9581;49.484;8.556;2024-01-15T11:50:17;1.70;99.90
18898;DHT22;9581;49.484;8.556;2024-01-15T11:52:54;1.70;99.90
18898;DHT22;9581;49.484;8.556;2024-01-15T11:55:26;2.10;99.90
18898;DHT22;9581;49.484;8.556;2024-01-15T11:57:54;2.10;99.90
18898;DHT22;9581;49.484;8.556;2024-01-15T12:00:22;2.00;99.90
18898;DHT22;9581;49.484;8.556;2024-01-15T12:02:50;2.10;99.90
18898;DHT22;9581;49.484;8.556;2024-01-15T12:05:18;2.10;99.90
18898;DHT22;9581;49.484;8.556;2024-01-15T12:07:47;2.00;99.90
18898;DHT22;9581;49.484;8.556;2024-01-15T12:10:15;2.00;99.90
18898;DHT22;9581;49.484;8.556;2024-01-15T12:12:59;2.00;99.90
18898;DHT22;9581;49.484;8.556;2024-01-15T12:15:27;2.10;99.90
18898;DHT22;9581;49.484;8.556;2024-01-15T12:17:57;2.10;99.90
18898;DHT22;9581;49.484;8.556;2024-01-15T12:20:24;2.10;99.90
18898;DHT22;9581;49.484;8.556;2024-01-15T12:22:51;2.00;99.90
18898;DHT22;9581;49.484;8.556;2024-01-15T12:25:18;2.10;99.90
18898;DHT22;9581;49.484;8.556;2024-01-15T12:27:44;2.10;99.90
18898;DHT22;9581;49.484;8.556;2024-01-15T12:30:12;2.20;99.90
18898;DHT22;9581;49.484;8.556;2024-01-15T12:32:40;2.20;99.90
18898;DHT22;9581;49.484;8.556;2024-01-15T12:35:09;2.20;99.90
18898;DHT22;9581;49.484;8.556;2024-01-15T12:37:36;2.20;99.90
18898;DHT22;9581;49.484;8.556;2024-01-15T12:40:03;2.20;99.90
18898;DHT22;9581;49.484;8.556;2024-01-15T12:42:32;2.40;99.90
18898;DHT22;9581;49.484;8.556;2024-01-15T12:45:00;2.30;99.90
18898;DHT22;9581;49.484;8.556;2024-01-15T12:47:27;2.30;99.90
18898;DHT22;9581;49.484;8.556;2024-01-15T12:49:53;2.50;99.90
18898;DHT22;9581;49.484;8.556;2024-01-15T12:52:21;2.40;99.90
18898;DHT22;9581;49.484;8.556;2024-01-15T12:54:48;2.50;99.90
18898;DHT22;9581;49.484;8.556;2024-01-15T12:57:15;2.50;99.90
18898;DHT22;9581;49.484;8.556;2024-01-15T12:59:42;2.70;99.90
18898;DHT22;9581;49.484;8.556;2024-01-15T13:02:09;2.60;99.90
18898;DHT22;9581;49.484;8.556;2024-01-15T13:04:37;2.60;99.90
18898;DHT22;9581;49.484;8.556;2024-01-15T13:07:04;2.60;99.90
18898;DHT22;9581;49.484;8.556;2024-01-15T13:09:32;2.60;99.90
18898;DHT22;9581;49.484;8.556;2024-01-15T13:11:59;2.60;99.90
18898;DHT22;9581;49.484;8.556;2024-01-15T13:14:26;2.70;99.90
18898;DHT22;9581;49.484;8.556;2024-01-15T13:16:54;2.80;99.90
18898;DHT22;9581;49.484;8.556;2024-01-15T13:19:21;2.90;99.90
18898;DHT22;9581;49.484;8.556;2024-01-15T13:21:48;2.80;99.90
18898;DHT22;9581;49.484;8.556;2024-01-15T13:24:16;2.90;99.90
18898;DHT22;9581;49.484;8.556;2024-01-15T13:26:44;3.00;99.90
18898;DHT22;9581;49.484;8.556;2024-01-15T13:29:12;2.80;99.90
18898;DHT22;9581;49.484;8.556;2024-01-15T13:31:39;2.80;99.90
18898;DHT22;9581;49.484;8.556;2024-01-15T13:34:06;3.00;99.90
18898;DHT22;9581;49.484;8.556;2024-01-15T13:36:33;2.90;99.90
18898;DHT22;9581;49.484;8.556;2024-01-15T13:38:59;3.10;99.90
18898;DHT22;9581;49.484;8.556;2024-01-15T13:41:26;3.00;99.90
18898;DHT22;9581;49.484;8.556;2024-01-15T13:43:56;3.10;99.90
18898;DHT22;9581;49.484;8.556;2024-01-15T13:46:25;3.20;99.90
18898;DHT22;9581;49.484;8.556;2024-01-15T13:48:52;3.60;99.90
18898;DHT22;9581;49.484;8.556;2024-01-15T13:51:22;3.80;99.90
18898;DHT22;9581;49.484;8.556;2024-01-15T13:53:49;3.50;99.90
18898;DHT22;9581;49.484;8.556;2024-01-15T13:56:16;3.50;99.90
18898;DHT22;9581;49.484;8.556;2024-01-15T13:58:43;3.50;99.90
18898;DHT22;9581;49.484;8.556;2024-01-15T14:01:11;3.40;99.90
18898;DHT22;9581;49.484;8.556;2024-01-15T14:03:38;3.30;99.90
18898;DHT22;9581;49.484;8.556;2024-01-15T14:06:04;3.20;99.90
18898;DHT22;9581;49.484;8.556;2024-01-15T14:08:34;3.10;99.90
18898;DHT22;9581;49.484;8.556;2024-01-15T14:11:01;3.10;99.90
18898;DHT22;9581;49.484;8.556;2024-01-15T14:13:27;3.10;99.90
18898;DHT22;9581;49.484;8.556;2024-01-15T14:15:54;3.10;99.90
18898;DHT22;9581;49.484;8.556;2024-01-15T14:18:22;3.20;99.90
18898;DHT22;9581;49.484;8.556;2024-01-15T14:20:49;3.30;99.90
18898;DHT22;9581;49.484;8.556;2024-01-15T14:23:15;3.30;99.90
18898;DHT22;9581;49.484;8.556;2024-01-15T14:25:42;3.50;99.90
18898;DHT22;9581;49.484;8.556;2024-01-15T14:28:09;3.40;99.90
18898;DHT22;9581;49.484;8.556;2024-01-15T14:30:36;3.30;99.90
18898;DHT22;9581;49.484;8.556;2024-01-15T14:33:02;3.30;99.90
18898;DHT22;9581;49.484;8.556;2024-01-15T14:35:30;3.20;99.90
18898;DHT22;9581;49.484;8.556;2024-01-15T14:37:57;3.30;99.90
18898;DHT22;9581;49.484;8.556;2024-01-15T14:40:25;3.20;99.90
18898;DHT22;9581;49.484;8.556;2024-01-15T14:42:51;3.20;99.90
18898;DHT22;9581;49.484;8.556;2024-01-15T14:45:18;3.10;99.90
18898;DHT22;9581;49.484;8.556;2024-01-15T14:47:45;3.10;99.90
18898;DHT22;9581;49.484;8.556;2024-01-15T14:50:12;3.10;99.90
18898;DHT22;9581;49.484;8.556;2024-01-15T14:52:40;3.20;99.90
18898;DHT22;9581;49.484;8.556;2024-01-15T14:55:07;3.20;99.90
18898;DHT22;9581;49.484;8.556;2024-01-15T14:57:35;3.20;99.90
18898;DHT22;9581;49.484;8.556;2024-01-15T15:00:02;3.20;99.90
18898;DHT22;9581;49.484;8.556;2024-01-15T15:02:32;3.10;99.90
18898;DHT22;9581;49.484;8.556;2024-01-15T15:05:00;3.10;99.90
18898;DHT22;9581;49.484;8.556;2024-01-15T15:07:26;3.00;99.90
18898;DHT22;9581;49.484;8.556;2024-01-15T15:09:54;3.10;99.90
18898;DHT22;9581;49.484;8.556;2024-01-15T15:12:21;3.20;99.90
18898;DHT22;9581;49.484;8.556;2024-01-15T15:14:48;3.10;99.90
18898;DHT22;9581;49.484;8.556;2024-01-15T15:17:15;3.10;99.90
18898;DHT22;9581;49.484;8.556;2024-01-15T15:19:42;3.00;99.90
18898;DHT22;9581;49.484;8.556;2024-01-15T15:22:08;3.00;99.90
18898;DHT22;9581;49.484;8.556;2024-01-15T15:24:36;3.00;99.90
18898;DHT22;9581;49.484;8.556;2024-01-15T15:27:05;3.00;99.90
18898;DHT22;9581;49.484;8.556;2024-01-15T15:29:32;3.00;99.90
18898;DHT22;9581;49.484;8.556;2024-01-15T15:32:00;3.00;99.90
18898;DHT22;9581;49.484;8.556;2024-01-15T15:34:27;2.90;99.90
18898;DHT22;9581;49.484;8.556;2024-01-15T15:36:53;2.80;99.90
18898;DHT22;9581;49.484;8.556;2024-01-15T15:39:20;2.90;99.90
18898;DHT22;9581;49.484;8.556;2024-01-15T15:41:47;2.80;99.90
18898;DHT22;9581;49.484;8.556;2024-01-15T15:44:15;2.80;99.90
18898;DHT22;9581;49.484;8.556;2024-01-15T15:46:43;2.80;99.90
18898;DHT22;9581;49.484;8.556;2024-01-15T15:49:09;2.70;99.90
18898;DHT22;9581;49.484;8.556;2024-01-15T15:51:36;2.70;99.90
18898;DHT22;9581;49.484;8.556;2024-01-15T15:54:03;2.70;99.90
18898;DHT22;9581;49.484;8.556;2024-01-15T15:56:31;2.70;99.90